createdAt,value
2023-01-07T00:01:39.189Z,99880.25
2023-01-07T00:04:07.307Z,99861.69
2023-01-07T00:06:36.206Z,99861.69
2023-01-07T00:09:04.780Z,99867.81
2023-01-07T00:11:36.977Z,99872.25
2023-01-07T00:14:05.136Z,99866.97
2023-01-07T00:16:33.737Z,99872.25
2023-01-07T00:19:02.628Z,99873.09
2023-01-07T00:21:29.879Z,99877.31
2023-01-07T00:24:01.877Z,99879.22
2023-01-07T00:26:31.907Z,99873.00
2023-01-07T00:28:59.110Z,99870.25
2023-01-07T00:31:31.261Z,99865.84
2023-01-07T00:33:59.535Z,99857.72
2023-01-07T00:36:28.763Z,99854.97
2023-01-07T00:39:03.649Z,99850.47
2023-01-07T00:41:30.023Z,99847.72
2023-01-07T00:43:59.129Z,99849.44
2023-01-07T00:46:26.367Z,99850.16
2023-01-07T00:48:52.759Z,99851.03
2023-01-07T00:51:19.806Z,99853.56
2023-01-07T00:53:46.557Z,99842.16
2023-01-07T00:56:18.861Z,99844.78
2023-01-07T00:58:45.299Z,99844.69
2023-01-07T01:01:12.293Z,99841.19
2023-01-07T01:03:39.702Z,99841.28
2023-01-07T01:06:15.143Z,99839.50
2023-01-07T01:08:46.356Z,99835.19
2023-01-07T01:11:14.649Z,99834.03
2023-01-07T01:13:41.382Z,99835.72
2023-01-07T01:16:10.731Z,99839.31
2023-01-07T01:18:37.748Z,99849.78
2023-01-07T01:21:09.248Z,99833.09
2023-01-07T01:23:36.025Z,99833.09
2023-01-07T01:26:08.601Z,99831.41
2023-01-07T01:28:35.098Z,99833.94
2023-01-07T01:31:02.254Z,99828.66
2023-01-07T01:33:28.787Z,99836.59
2023-01-07T01:35:55.147Z,99835.72
2023-01-07T01:38:21.569Z,99829.59
2023-01-07T01:40:47.989Z,99823.47
2023-01-07T01:43:33.944Z,99831.78
2023-01-07T01:46:11.772Z,99821.97
2023-01-07T01:48:43.325Z,99822.81
2023-01-07T01:51:11.281Z,99831.59
2023-01-07T01:53:37.952Z,99836.88
2023-01-07T01:56:08.885Z,99836.97
2023-01-07T01:58:41.489Z,99831.78
2023-01-07T02:01:07.980Z,99835.19
2023-01-07T02:03:37.716Z,99841.28
2023-01-07T02:06:06.035Z,99829.91
2023-01-07T02:08:32.478Z,99829.03
2023-01-07T02:11:18.360Z,99829.13
2023-01-07T02:14:04.529Z,99831.03
2023-01-07T02:16:40.502Z,99828.41
2023-01-07T02:19:35.860Z,99827.53
2023-01-07T02:22:48.840Z,99829.34
2023-01-07T02:25:43.160Z,99816.16
2023-01-07T02:28:19.392Z,99821.63
2023-01-07T02:30:54.423Z,99814.44
2023-01-07T02:33:29.394Z,99812.09
2023-01-07T02:36:08.867Z,99819.16
2023-01-07T02:38:53.407Z,99811.16
2023-01-07T02:41:44.212Z,99813.16
2023-01-07T02:44:38.161Z,99803.50
2023-01-07T02:47:19.048Z,99802.59
2023-01-07T02:49:48.794Z,99799.00
2023-01-07T02:52:27.792Z,99793.81
2023-01-07T02:54:59.747Z,99797.31
2023-01-07T02:58:10.805Z,99790.44
2023-01-07T03:00:51.232Z,99789.41
2023-01-07T03:03:47.254Z,99793.72
2023-01-07T03:06:51.289Z,99789.41
2023-01-07T03:09:38.914Z,99792.13
2023-01-07T03:12:22.173Z,99784.03
2023-01-07T03:14:50.622Z,99777.03
2023-01-07T03:17:25.375Z,99772.63
2023-01-07T03:19:57.739Z,99783.16
2023-01-07T03:22:27.898Z,99769.19
2023-01-07T03:24:57.211Z,99774.47
2023-01-07T03:27:26.190Z,99779.75
2023-01-07T03:29:53.929Z,99777.97
2023-01-07T03:32:29.753Z,99778.06
2023-01-07T03:34:56.448Z,99762.16
2023-01-07T03:37:26.380Z,99766.47
2023-01-07T03:39:53.124Z,99762.06
2023-01-07T03:42:39.795Z,99762.25
2023-01-07T03:45:13.127Z,99762.25
2023-01-07T03:47:43.327Z,99761.28
2023-01-07T03:50:10.487Z,99756.97
2023-01-07T03:52:37.276Z,99750.00
2023-01-07T03:55:04.894Z,99749.13
2023-01-07T03:57:32.436Z,99750.94
2023-01-07T03:59:58.966Z,99748.31
2023-01-07T04:02:25.818Z,99743.88
2023-01-07T04:04:52.538Z,99748.31
2023-01-07T04:07:19.254Z,99749.13
2023-01-07T04:09:47.179Z,99745.66
2023-01-07T04:12:14.158Z,99740.41
2023-01-07T04:14:40.562Z,99726.34
2023-01-07T04:17:06.969Z,99741.31
2023-01-07T04:19:33.408Z,99728.97
2023-01-07T04:21:59.765Z,99724.56
2023-01-07T04:24:26.337Z,99726.34
2023-01-07T04:26:52.675Z,99725.47
2023-01-07T04:29:20.939Z,99726.34
2023-01-07T04:31:47.487Z,99722.84
2023-01-07T04:34:13.882Z,99721.91
2023-01-07T04:36:40.247Z,99714.94
2023-01-07T04:39:06.793Z,99717.56
2023-01-07T04:41:33.186Z,99716.66
2023-01-07T04:43:59.561Z,99707.88
2023-01-07T04:46:25.965Z,99709.66
2023-01-07T04:48:52.316Z,99713.16
2023-01-07T04:51:20.251Z,99708.63
2023-01-07T04:53:47.653Z,99708.63
2023-01-07T04:56:14.418Z,99709.47
2023-01-07T04:58:41.106Z,99708.50
2023-01-07T05:01:07.607Z,99703.22
2023-01-07T05:03:37.174Z,99692.78
2023-01-07T05:06:03.856Z,99696.16
2023-01-07T05:08:30.210Z,99689.22
2023-01-07T05:10:56.545Z,99683.06
2023-01-07T05:13:23.953Z,99677.69
2023-01-07T05:15:50.583Z,99677.78
2023-01-07T05:18:17.312Z,99678.66
2023-01-07T05:20:43.693Z,99677.78
2023-01-07T05:23:10.089Z,99669.03
2023-01-07T05:25:36.463Z,99674.31
2023-01-07T05:28:03.148Z,99672.50
2023-01-07T05:30:29.790Z,99667.22
2023-01-07T05:32:56.290Z,99665.56
2023-01-07T05:35:22.706Z,99660.28
2023-01-07T05:37:49.811Z,99660.28
2023-01-07T05:40:16.266Z,99663.88
2023-01-07T05:42:43.529Z,99668.19
2023-01-07T05:45:10.365Z,99665.56
2023-01-07T05:47:36.810Z,99669.03
2023-01-07T05:50:03.406Z,99671.69
2023-01-07T05:52:29.803Z,99663.88
2023-01-07T05:54:56.139Z,99663.00
2023-01-07T05:57:22.448Z,99659.41
2023-01-07T05:59:48.787Z,99657.72
2023-01-07T06:02:15.103Z,99657.00
2023-01-07T06:04:41.569Z,99666.69
2023-01-07T06:07:07.924Z,99659.72
2023-01-07T06:09:34.265Z,99657.09
2023-01-07T06:12:00.626Z,99659.81
2023-01-07T06:14:26.972Z,99661.69
2023-01-07T06:19:32.348Z,99659.38
2023-01-07T06:21:59.455Z,99660.44
2023-01-07T06:24:26.064Z,99650.94
2023-01-07T06:26:52.538Z,99655.41
2023-01-07T06:29:19.012Z,99652.97
2023-01-07T06:31:45.538Z,99647.03
2023-01-07T06:34:12.006Z,99650.72
2023-01-07T06:36:38.503Z,99636.06
2023-01-07T06:39:05.201Z,99641.63
2023-01-07T06:41:31.832Z,99637.38
2023-01-07T06:43:58.299Z,99633.25
2023-01-07T06:46:25.155Z,99625.66
2023-01-07T06:48:51.698Z,99631.09
2023-01-07T06:51:18.302Z,99622.47
2023-01-07T06:53:44.866Z,99626.34
2023-01-07T06:56:11.310Z,99636.97
2023-01-07T06:58:37.868Z,99637.16
2023-01-07T07:01:08.927Z,99632.19
2023-01-07T07:03:35.594Z,99625.22
2023-01-07T07:06:02.235Z,99629.00
2023-01-07T07:08:29.043Z,99628.25
2023-01-07T07:10:55.471Z,99620.50
2023-01-07T07:13:22.113Z,99623.38
2023-01-07T07:15:49.810Z,99623.63
2023-01-07T07:18:19.481Z,99613.28
2023-01-07T07:20:47.240Z,99617.72
2023-01-07T07:23:14.056Z,99626.66
2023-01-07T07:25:40.755Z,99623.19
2023-01-07T07:28:07.326Z,99623.28
2023-01-07T07:30:45.970Z,99624.97
2023-01-07T07:33:15.171Z,99614.53
2023-01-07T07:35:41.880Z,99610.28
2023-01-07T07:38:08.520Z,99620.00
2023-01-07T07:40:35.109Z,99611.22
2023-01-07T07:43:11.241Z,99615.66
2023-01-07T07:45:40.003Z,99613.03
2023-01-07T07:48:07.649Z,99610.28
2023-01-07T07:50:35.162Z,99611.22
2023-01-07T07:53:01.653Z,99621.75
2023-01-07T07:55:28.293Z,99613.03
2023-01-07T07:57:55.843Z,99603.31
2023-01-07T08:00:23.318Z,99605.88
2023-01-07T08:02:50.111Z,99604.19
2023-01-07T08:05:16.899Z,99607.66
2023-01-07T08:07:43.472Z,99608.50
2023-01-07T08:10:09.905Z,99608.50
2023-01-07T08:12:38.415Z,99611.91
2023-01-07T08:15:06.533Z,99607.47
2023-01-07T08:17:33.217Z,99611.78
2023-01-07T08:19:59.755Z,99601.25
2023-01-07T08:22:26.279Z,99602.00
2023-01-07T08:24:52.807Z,99598.44
2023-01-07T08:27:19.446Z,99604.56
2023-01-07T08:29:46.055Z,99598.34
2023-01-07T08:32:12.736Z,99593.91
2023-01-07T08:34:39.270Z,99597.38
2023-01-07T08:37:05.748Z,99586.75
2023-01-07T08:39:32.311Z,99601.53
2023-01-07T08:41:58.721Z,99590.16
2023-01-07T08:44:25.193Z,99592.66
2023-01-07T08:46:53.407Z,99588.16
2023-01-07T08:49:20.317Z,99587.97
2023-01-07T08:51:46.744Z,99577.31
2023-01-07T08:54:13.340Z,99575.44
2023-01-07T08:56:39.883Z,99574.38
2023-01-07T08:59:06.624Z,99579.47
2023-01-07T09:01:33.242Z,99578.53
2023-01-07T09:03:59.911Z,99575.78
2023-01-07T09:06:26.485Z,99572.19
2023-01-07T09:08:52.996Z,99578.25
2023-01-07T09:11:19.478Z,99577.19
2023-01-07T09:14:29.349Z,99576.53
2023-01-07T09:16:55.832Z,99579.59
2023-01-07T09:19:22.623Z,99576.88
2023-01-07T09:21:51.315Z,99569.81
2023-01-07T09:24:18.331Z,99567.19
2023-01-07T09:26:44.892Z,99574.16
2023-01-07T09:29:11.502Z,99567.91
2023-01-07T09:31:38.067Z,99566.03
2023-01-07T09:34:05.108Z,99559.81
2023-01-07T09:36:31.732Z,99567.63
2023-01-07T09:38:58.164Z,99565.72
2023-01-07T09:41:51.378Z,99560.44
2023-01-07T09:44:33.054Z,99562.81
2023-01-07T09:47:00.646Z,99559.13
2023-01-07T09:49:32.473Z,99559.13
2023-01-07T09:52:10.487Z,99549.53
2023-01-07T09:54:39.673Z,99551.09
2023-01-07T09:57:16.887Z,99544.16
2023-01-07T09:59:44.761Z,99551.84
2023-01-07T10:02:37.341Z,99543.94
2023-01-07T10:05:25.334Z,99546.47
2023-01-07T10:08:29.710Z,99550.06
2023-01-07T10:11:01.495Z,99540.03
2023-01-07T10:13:36.726Z,99532.03
2023-01-07T10:16:26.732Z,99533.00
2023-01-07T10:19:15.266Z,99528.44
2023-01-07T10:21:51.888Z,99519.28
2023-01-07T10:24:32.842Z,99521.81
2023-01-07T10:27:04.462Z,99519.84
2023-01-07T10:29:40.053Z,99509.72
2023-01-07T10:32:15.926Z,99507.94
2023-01-07T10:34:48.430Z,99499.72
2023-01-07T10:37:35.310Z,99501.31
2023-01-07T10:40:16.866Z,99502.78
2023-01-07T10:43:23.374Z,99498.13
2023-01-07T10:45:59.512Z,99482.91
2023-01-07T10:48:50.185Z,99485.66
2023-01-07T10:51:54.472Z,99477.03
2023-01-07T10:54:58.768Z,99471.66
2023-01-07T10:57:28.751Z,99464.34
2023-01-07T11:00:02.525Z,99467.94
2023-01-07T11:02:29.855Z,99463.63
2023-01-07T11:04:58.454Z,99453.88
2023-01-07T11:07:44.096Z,99458.66
2023-01-07T11:10:33.451Z,99447.25
2023-01-07T11:13:21.192Z,99441.97
2023-01-07T11:15:55.275Z,99433.84
2023-01-07T11:18:26.858Z,99437.44
2023-01-07T11:20:55.787Z,99425.91
2023-01-07T11:23:28.027Z,99420.44
2023-01-07T11:26:05.046Z,99424.13
2023-01-07T11:28:33.519Z,99414.41
2023-01-07T11:31:01.346Z,99405.56
2023-01-07T11:34:01.882Z,99401.34
2023-01-07T11:36:42.649Z,99388.16
2023-01-07T11:39:19.934Z,99387.91
2023-01-07T11:41:59.727Z,99375.56
2023-01-07T11:44:27.003Z,99378.63
2023-01-07T11:46:55.055Z,99357.41
2023-01-07T11:49:31.187Z,99360.03
2023-01-07T11:51:58.743Z,99359.59
2023-01-07T11:54:27.832Z,99343.53
2023-01-07T11:57:20.614Z,99351.34
2023-01-07T11:59:47.167Z,99331.34
2023-01-07T12:02:27.488Z,99325.13
2023-01-07T12:05:18.591Z,99318.53
2023-01-07T12:07:47.623Z,99323.28
2023-01-07T12:10:40.632Z,99317.88
2023-01-07T12:13:26.091Z,99308.66
2023-01-07T12:15:57.702Z,99289.72
2023-01-07T12:19:04.309Z,99281.69
2023-01-07T12:21:35.392Z,99272.72
2023-01-07T12:24:39.194Z,99276.34
2023-01-07T12:27:16.449Z,99268.59
2023-01-07T12:29:51.568Z,99259.16
2023-01-07T12:32:39.181Z,99258.69
2023-01-07T12:35:18.034Z,99254.78
2023-01-07T12:37:53.055Z,99243.66
2023-01-07T12:40:24.683Z,99245.16
2023-01-07T12:42:59.279Z,99241.78
2023-01-07T12:45:43.033Z,99226.22
2023-01-07T12:48:47.230Z,99223.44
2023-01-07T12:51:22.721Z,99216.78
2023-01-07T12:53:56.983Z,99208.72
2023-01-07T12:56:25.434Z,99204.03
2023-01-07T12:58:58.136Z,99211.25
2023-01-07T13:01:34.451Z,99202.59
2023-01-07T13:04:19.281Z,99203.06
2023-01-07T13:06:58.695Z,99198.88
2023-01-07T13:09:36.641Z,99206.94
2023-01-07T13:12:42.493Z,99198.53
2023-01-07T13:15:21.613Z,99198.78
2023-01-07T13:17:50.118Z,99188.47
2023-01-07T13:20:23.243Z,99191.38
2023-01-07T13:22:54.550Z,99186.31
2023-01-07T13:25:36.243Z,99186.31
2023-01-07T13:28:11.692Z,99178.88
2023-01-07T13:30:45.032Z,99169.63
2023-01-07T13:33:43.101Z,99161.25
2023-01-07T13:36:28.096Z,99156.31
2023-01-07T13:39:12.752Z,99160.31
2023-01-07T13:41:58.001Z,99158.88
2023-01-07T13:44:48.260Z,99156.75
2023-01-07T13:47:20.508Z,99138.56
2023-01-07T13:49:58.672Z,99148.94
2023-01-07T13:52:30.536Z,99149.34
2023-01-07T13:54:59.606Z,99135.88
2023-01-07T13:57:26.012Z,99139.97
2023-01-07T13:59:57.747Z,99139.91
2023-01-07T14:02:54.980Z,99141.00
2023-01-07T14:05:21.320Z,99124.53
2023-01-07T14:07:51.569Z,99132.91
2023-01-07T14:10:30.909Z,99129.56
2023-01-07T14:13:28.723Z,99134.63
2023-01-07T14:16:12.571Z,99125.72
2023-01-07T14:18:44.884Z,99124.28
2023-01-07T14:21:29.976Z,99119.97
2023-01-07T14:24:02.360Z,99114.19
2023-01-07T14:26:47.329Z,99104.09
2023-01-07T14:29:33.436Z,99109.03
2023-01-07T14:32:27.457Z,99098.69
2023-01-07T14:34:58.967Z,99100.25
2023-01-07T14:37:31.592Z,99099.53
2023-01-07T14:39:57.948Z,99094.97
2023-01-07T14:42:42.646Z,99092.69
2023-01-07T14:45:37.030Z,99090.06
2023-01-07T14:48:09.843Z,99085.25
2023-01-07T14:50:48.709Z,99080.06
2023-01-07T14:53:39.765Z,99081.75
2023-01-07T14:56:25.493Z,99079.72
2023-01-07T14:59:19.404Z,99080.53
2023-01-07T15:01:57.221Z,99081.06
2023-01-07T15:04:45.729Z,99076.34
2023-01-07T15:07:25.574Z,99073.13
2023-01-07T15:10:20.727Z,99072.66
2023-01-07T15:13:13.010Z,99064.25
2023-01-07T15:15:59.941Z,99055.97
2023-01-07T15:18:27.952Z,99068.94
2023-01-07T15:21:18.738Z,99059.44
2023-01-07T15:23:51.813Z,99053.41
2023-01-07T15:26:28.574Z,99053.03
2023-01-07T15:29:06.355Z,99039.38
2023-01-07T15:32:14.109Z,99042.81
2023-01-07T15:34:40.524Z,99036.84
2023-01-07T15:37:10.717Z,99034.06
2023-01-07T15:39:41.158Z,99031.16
2023-01-07T15:42:16.038Z,99034.38
2023-01-07T15:44:42.982Z,99031.84
2023-01-07T15:47:40.837Z,99024.75
2023-01-07T15:50:24.365Z,99018.84
2023-01-07T15:52:53.699Z,99013.69
2023-01-07T15:55:37.423Z,99007.91
2023-01-07T15:58:12.852Z,99010.03
2023-01-07T16:00:39.330Z,99007.50
2023-01-07T16:03:05.991Z,99010.50
2023-01-07T16:05:32.749Z,99009.03
2023-01-07T16:08:01.135Z,99007.59
2023-01-07T16:10:33.193Z,99006.13
2023-01-07T16:13:05.303Z,99000.97
2023-01-07T16:15:35.072Z,98998.69
2023-01-07T16:18:02.454Z,98987.28
2023-01-07T16:20:37.254Z,98988.59
2023-01-07T16:23:03.579Z,98985.13
2023-01-07T16:25:36.711Z,98987.22
2023-01-07T16:28:04.576Z,98985.56
2023-01-07T16:30:31.869Z,98983.03
2023-01-07T16:32:58.976Z,98980.75
2023-01-07T16:35:34.597Z,98969.81
2023-01-07T16:38:03.485Z,98958.44
2023-01-07T16:40:37.263Z,98952.44
2023-01-07T16:43:05.265Z,98955.19
2023-01-07T16:45:34.788Z,98953.47
2023-01-07T16:48:13.656Z,98963.41
2023-01-07T16:50:42.212Z,98952.97
2023-01-07T16:53:24.345Z,98949.97
2023-01-07T16:55:54.498Z,98953.44
2023-01-07T16:58:26.624Z,98960.75
2023-01-07T17:00:55.379Z,98957.16
2023-01-07T17:03:23.902Z,98958.22
2023-01-07T17:06:06.065Z,98942.84
2023-01-07T17:08:33.422Z,98943.59
2023-01-07T17:11:05.686Z,98937.56
2023-01-07T17:13:34.382Z,98940.19
2023-01-07T17:16:15.254Z,98945.94
2023-01-07T17:18:41.898Z,98930.84
2023-01-07T17:21:31.654Z,98918.94
2023-01-07T17:23:58.625Z,98917.78
2023-01-07T17:26:27.503Z,98914.31
2023-01-07T17:29:02.056Z,98921.47
2023-01-07T17:31:28.651Z,98917.69
2023-01-07T17:33:55.380Z,98905.47
2023-01-07T17:36:26.592Z,98914.22
2023-01-07T17:38:53.353Z,98907.13
2023-01-07T17:41:40.427Z,98903.78
2023-01-07T17:44:11.383Z,98911.59
2023-01-07T17:46:38.974Z,98900.19
2023-01-07T17:49:05.672Z,98910.72
2023-01-07T17:51:36.503Z,98911.69
2023-01-07T17:54:03.135Z,98901.97
2023-01-07T17:56:29.925Z,98896.84
2023-01-07T17:58:56.421Z,98895.88
2023-01-07T18:01:23.910Z,98903.78
2023-01-07T18:03:51.174Z,98896.72
2023-01-07T18:06:23.233Z,98902.94
2023-01-07T18:08:51.157Z,98901.16
2023-01-07T18:11:40.283Z,98906.53
2023-01-07T18:14:07.057Z,98903.78
2023-01-07T18:16:34.369Z,98905.69
2023-01-07T18:21:36.212Z,98895.25
2023-01-07T18:24:02.676Z,98898.75
2023-01-07T18:26:29.381Z,98894.44
2023-01-07T18:28:55.937Z,98883.91
2023-01-07T18:31:22.557Z,98889.06
2023-01-07T18:33:49.650Z,98889.88
2023-01-07T18:36:18.863Z,98881.06
2023-01-07T18:38:45.520Z,98885.47
2023-01-07T18:41:12.000Z,98872.19
2023-01-07T18:43:38.590Z,98880.91
2023-01-07T18:46:09.862Z,98881.88
2023-01-07T18:48:37.133Z,98877.47
2023-01-07T18:51:10.551Z,98880.09
2023-01-07T18:53:37.515Z,98865.84
2023-01-07T18:56:08.380Z,98865.00
2023-01-07T18:58:34.932Z,98864.06
2023-01-07T19:01:05.608Z,98863.22
2023-01-07T19:03:32.412Z,98856.16
2023-01-07T19:05:59.984Z,98844.69
2023-01-07T19:08:27.338Z,98847.31
2023-01-07T19:10:53.903Z,98840.22
2023-01-07T19:13:20.383Z,98826.94
2023-01-07T19:15:46.793Z,98823.25
2023-01-07T19:18:13.400Z,98814.53
2023-01-07T19:20:39.994Z,98812.59
2023-01-07T19:23:06.669Z,98816.19
2023-01-07T19:25:33.213Z,98806.63
2023-01-07T19:27:59.813Z,98804.09
2023-01-07T19:30:26.340Z,98799.91
2023-01-07T19:32:53.330Z,98807.06
2023-01-07T19:35:20.131Z,98791.25
2023-01-07T19:37:46.744Z,98800.97
2023-01-07T19:40:13.496Z,98784.44
2023-01-07T19:42:39.971Z,98780.84
2023-01-07T19:45:07.137Z,98776.41
2023-01-07T19:47:37.857Z,98771.03
2023-01-07T19:50:04.724Z,98762.19
2023-01-07T19:52:31.314Z,98767.34
2023-01-07T19:54:57.818Z,98757.66
2023-01-07T19:57:24.404Z,98755.84
2023-01-07T19:59:51.125Z,98761.09
2023-01-07T20:02:17.975Z,98748.78
2023-01-07T20:04:44.638Z,98752.25
2023-01-07T20:07:11.271Z,98750.56
2023-01-07T20:09:40.537Z,98771.91
2023-01-07T20:12:07.373Z,98770.19
2023-01-07T20:14:33.922Z,98759.06
2023-01-07T20:17:00.668Z,98774.84
2023-01-07T20:19:30.202Z,98762.75
2023-01-07T20:21:56.666Z,98764.53
2023-01-07T20:24:23.156Z,98762.88
2023-01-07T20:26:54.495Z,98786.91
2023-01-07T20:29:21.462Z,98787.66
2023-01-07T20:31:48.002Z,98780.72
2023-01-07T20:34:17.571Z,98768.25
2023-01-07T20:36:44.192Z,98767.19
2023-01-07T20:39:11.115Z,98761.09
2023-01-07T20:41:38.909Z,98766.34
2023-01-07T20:44:08.780Z,98761.81
2023-01-07T20:46:35.426Z,98749.38
2023-01-07T20:49:02.306Z,98751.75
2023-01-07T20:51:29.033Z,98757.75
2023-01-07T20:53:55.533Z,98754.06
2023-01-07T20:56:23.770Z,98742.56
2023-01-07T20:58:51.237Z,98754.53
2023-01-07T21:01:21.714Z,98756.31
2023-01-07T21:03:48.934Z,98741.97
2023-01-07T21:06:17.788Z,98743.53
2023-01-07T21:08:46.598Z,98726.91
2023-01-07T21:11:15.881Z,98737.44
2023-01-07T21:13:42.792Z,98732.88
2023-01-07T21:16:10.157Z,98732.16
2023-01-07T21:18:37.132Z,98725.81
2023-01-07T21:21:19.347Z,98718.88
2023-01-07T21:23:49.379Z,98720.44
2023-01-07T21:26:17.022Z,98717.81
2023-01-07T21:28:44.398Z,98715.28
2023-01-07T21:31:13.286Z,98718.63
2023-01-07T21:33:40.543Z,98709.78
2023-01-07T21:36:15.776Z,98716.84
2023-01-07T21:38:43.317Z,98710.50
2023-01-07T21:41:15.475Z,98714.94
2023-01-07T21:43:43.239Z,98703.19
2023-01-07T21:46:10.343Z,98707.41
2023-01-07T21:48:39.338Z,98712.66
2023-01-07T21:51:10.849Z,98706.31
2023-01-07T21:53:37.447Z,98697.47
2023-01-07T21:56:09.898Z,98690.25
2023-01-07T21:58:37.680Z,98689.91
2023-01-07T22:01:06.253Z,98686.31
2023-01-07T22:03:34.163Z,98682.84
2023-01-07T22:06:07.742Z,98690.63
2023-01-07T22:08:35.061Z,98697.31
2023-01-07T22:11:01.693Z,98684.03
2023-01-07T22:13:28.339Z,98697.94
2023-01-07T22:15:55.973Z,98702.94
2023-01-07T22:18:22.510Z,98707.28
2023-01-07T22:20:55.842Z,98729.31
2023-01-07T22:23:23.025Z,98718.31
2023-01-07T22:25:50.073Z,98717.34
2023-01-07T22:28:23.392Z,98717.09
2023-01-07T22:30:53.996Z,98719.50
2023-01-07T22:33:22.569Z,98720.91
2023-01-07T22:35:51.245Z,98716.50
2023-01-07T22:38:19.395Z,98716.25
2023-01-07T22:40:46.029Z,98716.03
2023-01-07T22:43:15.070Z,98712.53
2023-01-07T22:45:53.553Z,98714.09
2023-01-07T22:48:27.292Z,98719.38
2023-01-07T22:51:02.899Z,98721.03
2023-01-07T22:53:30.277Z,98721.66
2023-01-07T22:55:57.795Z,98722.34
2023-01-07T22:58:24.445Z,98716.97
2023-01-07T23:00:50.903Z,98722.00
2023-01-07T23:03:19.187Z,98711.56
2023-01-07T23:05:45.789Z,98714.78
2023-01-07T23:08:12.641Z,98712.25
2023-01-07T23:10:39.993Z,98703.38
2023-01-07T23:13:07.088Z,98693.69
2023-01-07T23:15:34.408Z,98708.66
2023-01-07T23:18:01.049Z,98692.84
2023-01-07T23:20:27.622Z,98698.09
2023-01-07T23:22:56.449Z,98693.09
2023-01-07T23:25:22.991Z,98689.50
2023-01-07T23:27:49.938Z,98684.94
2023-01-07T23:30:16.470Z,98691.03
2023-01-07T23:32:45.022Z,98697.28
2023-01-07T23:35:12.966Z,98690.34
2023-01-07T23:37:39.578Z,98689.50
2023-01-07T23:40:07.787Z,98692.97
2023-01-07T23:42:35.873Z,98707.00
2023-01-07T23:45:04.158Z,98699.94
2023-01-07T23:47:30.763Z,98691.03
2023-01-07T23:49:57.223Z,98666.34
2023-01-07T23:52:23.741Z,98670.06
2023-01-07T23:54:50.283Z,98651.72
2023-01-07T23:57:16.923Z,98659.63
2023-01-07T23:59:43.897Z,98668.53
